sensor_id;sensor_type;location;lat;lon;timestamp;temperature;humidity
67194;DHT22;54121;53.508;49.422;2022-12-18T00:01:13;0.40;84.80
67194;DHT22;54121;53.508;49.422;2022-12-18T00:03:40;0.50;85.00
67194;DHT22;54121;53.508;49.422;2022-12-18T00:06:07;0.50;84.80
67194;DHT22;54121;53.508;49.422;2022-12-18T00:08:35;0.50;85.10
67194;DHT22;54121;53.508;49.422;2022-12-18T00:11:10;0.30;85.50
67194;DHT22;54121;53.508;49.422;2022-12-18T00:13:38;0.40;86.40
67194;DHT22;54121;53.508;49.422;2022-12-18T00:16:06;0.30;87.30
67194;DHT22;54121;53.508;49.422;2022-12-18T00:18:33;0.30;87.70
67194;DHT22;54121;53.508;49.422;2022-12-18T00:21:02;0.40;88.00
67194;DHT22;54121;53.508;49.422;2022-12-18T00:23:32;0.40;87.80
67194;DHT22;54121;53.508;49.422;2022-12-18T00:26:00;0.30;86.10
67194;DHT22;54121;53.508;49.422;2022-12-18T00:28:27;0.40;85.70
67194;DHT22;54121;53.508;49.422;2022-12-18T00:31:21;0.30;85.60
67194;DHT22;54121;53.508;49.422;2022-12-18T00:33:48;0.30;85.70
67194;DHT22;54121;53.508;49.422;2022-12-18T00:36:17;0.20;85.60
67194;DHT22;54121;53.508;49.422;2022-12-18T00:38:44;0.10;86.20
67194;DHT22;54121;53.508;49.422;2022-12-18T00:41:13;0.10;86.60
67194;DHT22;54121;53.508;49.422;2022-12-18T00:44:00;0.10;87.30
67194;DHT22;54121;53.508;49.422;2022-12-18T00:46:27;0.00;87.40
67194;DHT22;54121;53.508;49.422;2022-12-18T00:48:54;-0.10;87.60
67194;DHT22;54121;53.508;49.422;2022-12-18T00:51:20;-0.10;88.00
67194;DHT22;54121;53.508;49.422;2022-12-18T00:53:47;-0.10;87.80
67194;DHT22;54121;53.508;49.422;2022-12-18T00:56:13;-0.10;88.50
67194;DHT22;54121;53.508;49.422;2022-12-18T00:58:39;0.10;89.10
67194;DHT22;54121;53.508;49.422;2022-12-18T01:01:06;0.10;88.60
67194;DHT22;54121;53.508;49.422;2022-12-18T01:03:34;0.30;89.60
67194;DHT22;54121;53.508;49.422;2022-12-18T01:06:06;0.30;88.10
67194;DHT22;54121;53.508;49.422;2022-12-18T01:08:33;0.30;87.90
67194;DHT22;54121;53.508;49.422;2022-12-18T01:11:00;0.50;88.50
67194;DHT22;54121;53.508;49.422;2022-12-18T01:13:27;0.50;87.90
67194;DHT22;54121;53.508;49.422;2022-12-18T01:15:53;0.90;88.60
67194;DHT22;54121;53.508;49.422;2022-12-18T01:18:20;0.60;88.00
67194;DHT22;54121;53.508;49.422;2022-12-18T01:20:46;0.70;88.30
67194;DHT22;54121;53.508;49.422;2022-12-18T01:23:13;0.70;88.10
67194;DHT22;54121;53.508;49.422;2022-12-18T01:25:39;0.80;89.00
67194;DHT22;54121;53.508;49.422;2022-12-18T01:28:06;1.00;88.30
67194;DHT22;54121;53.508;49.422;2022-12-18T01:30:32;0.80;88.40
67194;DHT22;54121;53.508;49.422;2022-12-18T01:32:58;0.90;89.60
67194;DHT22;54121;53.508;49.422;2022-12-18T01:35:25;0.90;89.10
67194;DHT22;54121;53.508;49.422;2022-12-18T01:37:54;0.90;88.90
67194;DHT22;54121;53.508;49.422;2022-12-18T01:40:21;0.80;88.80
67194;DHT22;54121;53.508;49.422;2022-12-18T01:42:52;0.70;89.30
67194;DHT22;54121;53.508;49.422;2022-12-18T01:47:51;0.50;90.00
67194;DHT22;54121;53.508;49.422;2022-12-18T01:52:51;0.50;90.20
67194;DHT22;54121;53.508;49.422;2022-12-18T01:55:22;0.40;90.30
67194;DHT22;54121;53.508;49.422;2022-12-18T01:57:53;0.40;90.40
67194;DHT22;54121;53.508;49.422;2022-12-18T02:00:21;0.30;90.60
67194;DHT22;54121;53.508;49.422;2022-12-18T02:02:48;0.20;90.90
67194;DHT22;54121;53.508;49.422;2022-12-18T02:10:43;0.00;91.50
67194;DHT22;54121;53.508;49.422;2022-12-18T02:13:20;0.00;91.40
67194;DHT22;54121;53.508;49.422;2022-12-18T02:16:19;0.00;91.30
67194;DHT22;54121;53.508;49.422;2022-12-18T02:18:55;0.00;91.20
67194;DHT22;54121;53.508;49.422;2022-12-18T02:26:56;0.00;91.00
67194;DHT22;54121;53.508;49.422;2022-12-18T02:29:27;0.00;91.20
67194;DHT22;54121;53.508;49.422;2022-12-18T02:31:58;0.00;91.20
67194;DHT22;54121;53.508;49.422;2022-12-18T02:34:28;0.00;91.20
67194;DHT22;54121;53.508;49.422;2022-12-18T02:36:55;0.00;91.10
67194;DHT22;54121;53.508;49.422;2022-12-18T02:39:25;0.10;91.00
67194;DHT22;54121;53.508;49.422;2022-12-18T02:41:52;0.10;90.90
67194;DHT22;54121;53.508;49.422;2022-12-18T02:44:19;0.20;90.90
67194;DHT22;54121;53.508;49.422;2022-12-18T02:46:50;0.20;90.60
67194;DHT22;54121;53.508;49.422;2022-12-18T02:57:30;0.20;91.00
67194;DHT22;54121;53.508;49.422;2022-12-18T03:00:06;0.20;91.30
67194;DHT22;54121;53.508;49.422;2022-12-18T03:02:45;0.20;91.20
67194;DHT22;54121;53.508;49.422;2022-12-18T03:07:46;0.30;92.50
67194;DHT22;54121;53.508;49.422;2022-12-18T03:10:15;0.40;92.40
67194;DHT22;54121;53.508;49.422;2022-12-18T03:12:47;0.50;92.80
67194;DHT22;54121;53.508;49.422;2022-12-18T03:15:29;0.60;92.40
67194;DHT22;54121;53.508;49.422;2022-12-18T03:18:04;0.70;91.90
67194;DHT22;54121;53.508;49.422;2022-12-18T03:20:34;0.70;91.80
67194;DHT22;54121;53.508;49.422;2022-12-18T03:23:11;0.70;91.70
67194;DHT22;54121;53.508;49.422;2022-12-18T03:25:40;0.80;91.60
67194;DHT22;54121;53.508;49.422;2022-12-18T03:28:21;0.90;91.90
67194;DHT22;54121;53.508;49.422;2022-12-18T03:30:51;1.00;92.00
67194;DHT22;54121;53.508;49.422;2022-12-18T03:35:53;1.10;91.70
67194;DHT22;54121;53.508;49.422;2022-12-18T03:38:20;1.20;92.00
67194;DHT22;54121;53.508;49.422;2022-12-18T03:43:36;1.20;92.50
67194;DHT22;54121;53.508;49.422;2022-12-18T03:46:26;1.20;92.80
67194;DHT22;54121;53.508;49.422;2022-12-18T03:49:12;1.40;92.70
67194;DHT22;54121;53.508;49.422;2022-12-18T03:54:13;1.50;92.10
67194;DHT22;54121;53.508;49.422;2022-12-18T03:56:48;1.40;92.30
67194;DHT22;54121;53.508;49.422;2022-12-18T03:59:19;1.40;92.80
67194;DHT22;54121;53.508;49.422;2022-12-18T04:01:48;1.30;92.80
67194;DHT22;54121;53.508;49.422;2022-12-18T04:04:16;1.40;93.20
67194;DHT22;54121;53.508;49.422;2022-12-18T04:06:45;1.40;92.90
67194;DHT22;54121;53.508;49.422;2022-12-18T04:09:14;1.50;93.00
67194;DHT22;54121;53.508;49.422;2022-12-18T04:11:43;1.70;93.00
67194;DHT22;54121;53.508;49.422;2022-12-18T04:14:10;1.80;92.40
67194;DHT22;54121;53.508;49.422;2022-12-18T04:16:37;1.90;92.00
67194;DHT22;54121;53.508;49.422;2022-12-18T04:19:04;2.00;91.60
67194;DHT22;54121;53.508;49.422;2022-12-18T04:21:31;2.10;91.10
67194;DHT22;54121;53.508;49.422;2022-12-18T04:23:57;2.10;91.20
67194;DHT22;54121;53.508;49.422;2022-12-18T04:26:23;2.10;91.10
67194;DHT22;54121;53.508;49.422;2022-12-18T04:28:50;2.10;91.40
67194;DHT22;54121;53.508;49.422;2022-12-18T04:31:16;2.20;91.40
67194;DHT22;54121;53.508;49.422;2022-12-18T04:33:43;2.30;91.40
67194;DHT22;54121;53.508;49.422;2022-12-18T04:36:09;2.30;91.20
67194;DHT22;54121;53.508;49.422;2022-12-18T04:38:36;2.30;90.90
67194;DHT22;54121;53.508;49.422;2022-12-18T04:41:02;2.20;91.00
67194;DHT22;54121;53.508;49.422;2022-12-18T04:43:29;2.30;90.90
67194;DHT22;54121;53.508;49.422;2022-12-18T04:46:05;2.20;90.70
67194;DHT22;54121;53.508;49.422;2022-12-18T04:48:32;2.20;90.80
67194;DHT22;54121;53.508;49.422;2022-12-18T04:50:59;2.20;90.70
67194;DHT22;54121;53.508;49.422;2022-12-18T04:53:26;2.20;90.80
67194;DHT22;54121;53.508;49.422;2022-12-18T04:56:09;2.20;91.20
67194;DHT22;54121;53.508;49.422;2022-12-18T04:58:37;2.10;91.20
67194;DHT22;54121;53.508;49.422;2022-12-18T05:01:04;2.20;91.80
67194;DHT22;54121;53.508;49.422;2022-12-18T05:03:31;2.30;91.30
67194;DHT22;54121;53.508;49.422;2022-12-18T05:05:57;2.20;91.70
67194;DHT22;54121;53.508;49.422;2022-12-18T05:08:24;2.30;92.30
67194;DHT22;54121;53.508;49.422;2022-12-18T05:11:01;2.30;91.60
67194;DHT22;54121;53.508;49.422;2022-12-18T05:13:29;2.30;91.70
67194;DHT22;54121;53.508;49.422;2022-12-18T05:15:55;2.40;91.90
67194;DHT22;54121;53.508;49.422;2022-12-18T05:18:23;2.40;91.70
67194;DHT22;54121;53.508;49.422;2022-12-18T05:20:53;2.50;91.60
67194;DHT22;54121;53.508;49.422;2022-12-18T05:23:22;2.50;91.30
67194;DHT22;54121;53.508;49.422;2022-12-18T05:25:58;2.50;91.30
67194;DHT22;54121;53.508;49.422;2022-12-18T05:28:26;2.50;91.70
67194;DHT22;54121;53.508;49.422;2022-12-18T05:30:55;2.40;91.50
67194;DHT22;54121;53.508;49.422;2022-12-18T05:33:26;2.40;91.30
67194;DHT22;54121;53.508;49.422;2022-12-18T05:36:00;2.60;91.70
67194;DHT22;54121;53.508;49.422;2022-12-18T05:38:28;2.50;90.90
67194;DHT22;54121;53.508;49.422;2022-12-18T05:40:55;2.60;90.90
67194;DHT22;54121;53.508;49.422;2022-12-18T05:43:23;2.50;91.20
67194;DHT22;54121;53.508;49.422;2022-12-18T05:45:50;2.50;91.40
67194;DHT22;54121;53.508;49.422;2022-12-18T05:48:17;2.50;91.40
67194;DHT22;54121;53.508;49.422;2022-12-18T05:50:45;2.50;91.40
67194;DHT22;54121;53.508;49.422;2022-12-18T05:53:14;2.60;91.40
67194;DHT22;54121;53.508;49.422;2022-12-18T05:55:42;2.70;91.20
67194;DHT22;54121;53.508;49.422;2022-12-18T05:58:11;2.70;91.00
67194;DHT22;54121;53.508;49.422;2022-12-18T06:00:41;2.80;90.80
67194;DHT22;54121;53.508;49.422;2022-12-18T06:03:09;2.80;90.50
67194;DHT22;54121;53.508;49.422;2022-12-18T06:05:37;2.80;90.60
67194;DHT22;54121;53.508;49.422;2022-12-18T06:08:05;2.70;90.60
67194;DHT22;54121;53.508;49.422;2022-12-18T06:10:32;2.70;90.60
67194;DHT22;54121;53.508;49.422;2022-12-18T06:12:58;2.60;90.60
67194;DHT22;54121;53.508;49.422;2022-12-18T06:15:25;2.60;90.80
67194;DHT22;54121;53.508;49.422;2022-12-18T06:17:51;2.70;90.80
67194;DHT22;54121;53.508;49.422;2022-12-18T06:20:18;2.60;90.60
67194;DHT22;54121;53.508;49.422;2022-12-18T06:22:45;2.70;90.30
67194;DHT22;54121;53.508;49.422;2022-12-18T06:25:11;2.70;90.20
67194;DHT22;54121;53.508;49.422;2022-12-18T06:27:38;2.70;89.80
67194;DHT22;54121;53.508;49.422;2022-12-18T06:30:05;2.80;89.90
67194;DHT22;54121;53.508;49.422;2022-12-18T06:32:31;2.70;89.30
67194;DHT22;54121;53.508;49.422;2022-12-18T06:34:58;2.70;89.70
67194;DHT22;54121;53.508;49.422;2022-12-18T06:37:24;2.70;89.30
67194;DHT22;54121;53.508;49.422;2022-12-18T06:39:55;2.60;89.50
67194;DHT22;54121;53.508;49.422;2022-12-18T06:42:24;2.60;89.30
67194;DHT22;54121;53.508;49.422;2022-12-18T06:44:51;2.50;89.70
67194;DHT22;54121;53.508;49.422;2022-12-18T06:47:18;2.50;89.90
67194;DHT22;54121;53.508;49.422;2022-12-18T06:49:44;2.60;89.90
67194;DHT22;54121;53.508;49.422;2022-12-18T06:52:11;2.60;89.40
67194;DHT22;54121;53.508;49.422;2022-12-18T06:54:37;2.60;88.60
67194;DHT22;54121;53.508;49.422;2022-12-18T06:57:04;2.60;88.50
67194;DHT22;54121;53.508;49.422;2022-12-18T06:59:30;2.60;88.70
67194;DHT22;54121;53.508;49.422;2022-12-18T07:01:57;2.60;88.70
67194;DHT22;54121;53.508;49.422;2022-12-18T07:04:28;2.60;89.70
67194;DHT22;54121;53.508;49.422;2022-12-18T07:06:55;2.60;87.60
67194;DHT22;54121;53.508;49.422;2022-12-18T07:09:21;2.60;87.10
67194;DHT22;54121;53.508;49.422;2022-12-18T07:11:48;2.60;87.50
67194;DHT22;54121;53.508;49.422;2022-12-18T07:14:14;2.60;88.00
67194;DHT22;54121;53.508;49.422;2022-12-18T07:16:41;2.60;87.80
67194;DHT22;54121;53.508;49.422;2022-12-18T07:19:07;2.50;88.70
67194;DHT22;54121;53.508;49.422;2022-12-18T07:21:34;2.50;88.30
67194;DHT22;54121;53.508;49.422;2022-12-18T07:24:00;2.50;88.20
67194;DHT22;54121;53.508;49.422;2022-12-18T07:26:27;2.60;87.70
67194;DHT22;54121;53.508;49.422;2022-12-18T07:28:57;2.70;87.20
67194;DHT22;54121;53.508;49.422;2022-12-18T07:31:24;2.70;86.40
67194;DHT22;54121;53.508;49.422;2022-12-18T07:33:51;2.70;86.60
67194;DHT22;54121;53.508;49.422;2022-12-18T07:36:18;2.70;86.80
67194;DHT22;54121;53.508;49.422;2022-12-18T07:38:47;2.60;86.90
67194;DHT22;54121;53.508;49.422;2022-12-18T07:41:15;2.70;87.70
67194;DHT22;54121;53.508;49.422;2022-12-18T07:43:42;2.60;87.20
67194;DHT22;54121;53.508;49.422;2022-12-18T07:46:09;2.60;87.30
67194;DHT22;54121;53.508;49.422;2022-12-18T07:48:35;2.60;86.60
67194;DHT22;54121;53.508;49.422;2022-12-18T07:51:03;2.60;87.50
67194;DHT22;54121;53.508;49.422;2022-12-18T07:53:31;2.60;87.70
67194;DHT22;54121;53.508;49.422;2022-12-18T07:55:59;2.70;87.20
67194;DHT22;54121;53.508;49.422;2022-12-18T07:58:26;2.70;87.50
67194;DHT22;54121;53.508;49.422;2022-12-18T08:00:52;2.60;86.70
67194;DHT22;54121;53.508;49.422;2022-12-18T08:03:19;2.70;87.00
67194;DHT22;54121;53.508;49.422;2022-12-18T08:05:45;2.60;86.20
67194;DHT22;54121;53.508;49.422;2022-12-18T08:08:12;2.60;87.40
67194;DHT22;54121;53.508;49.422;2022-12-18T08:10:38;2.70;86.80
67194;DHT22;54121;53.508;49.422;2022-12-18T08:13:05;2.80;86.50
67194;DHT22;54121;53.508;49.422;2022-12-18T08:15:32;2.80;86.90
67194;DHT22;54121;53.508;49.422;2022-12-18T08:17:58;2.70;87.40
67194;DHT22;54121;53.508;49.422;2022-12-18T08:20:25;2.70;88.30
67194;DHT22;54121;53.508;49.422;2022-12-18T08:22:51;2.80;88.10
67194;DHT22;54121;53.508;49.422;2022-12-18T08:25:18;2.90;88.00
67194;DHT22;54121;53.508;49.422;2022-12-18T08:27:45;2.80;87.90
67194;DHT22;54121;53.508;49.422;2022-12-18T08:30:12;2.90;88.60
67194;DHT22;54121;53.508;49.422;2022-12-18T08:32:38;2.90;88.40
67194;DHT22;54121;53.508;49.422;2022-12-18T08:35:05;2.80;89.10
67194;DHT22;54121;53.508;49.422;2022-12-18T08:37:32;2.80;89.10
67194;DHT22;54121;53.508;49.422;2022-12-18T08:39:58;2.70;90.00
67194;DHT22;54121;53.508;49.422;2022-12-18T08:42:25;2.70;90.00
67194;DHT22;54121;53.508;49.422;2022-12-18T08:45:10;2.70;89.40
67194;DHT22;54121;53.508;49.422;2022-12-18T08:47:40;2.70;89.80
67194;DHT22;54121;53.508;49.422;2022-12-18T08:50:07;2.70;89.90
67194;DHT22;54121;53.508;49.422;2022-12-18T08:52:33;2.70;90.20
67194;DHT22;54121;53.508;49.422;2022-12-18T08:55:00;2.70;90.20
67194;DHT22;54121;53.508;49.422;2022-12-18T08:57:26;2.80;90.40
67194;DHT22;54121;53.508;49.422;2022-12-18T08:59:53;2.70;90.20
67194;DHT22;54121;53.508;49.422;2022-12-18T09:02:19;2.70;90.80
67194;DHT22;54121;53.508;49.422;2022-12-18T09:05:10;2.80;90.40
67194;DHT22;54121;53.508;49.422;2022-12-18T09:08:03;2.80;90.20
67194;DHT22;54121;53.508;49.422;2022-12-18T09:10:29;2.80;89.90
67194;DHT22;54121;53.508;49.422;2022-12-18T09:12:56;2.80;90.00
67194;DHT22;54121;53.508;49.422;2022-12-18T09:15:23;2.90;89.50
67194;DHT22;54121;53.508;49.422;2022-12-18T09:17:50;2.90;89.80
67194;DHT22;54121;53.508;49.422;2022-12-18T09:20:16;2.90;90.00
67194;DHT22;54121;53.508;49.422;2022-12-18T09:22:43;2.90;90.60
67194;DHT22;54121;53.508;49.422;2022-12-18T09:25:09;2.90;90.10
67194;DHT22;54121;53.508;49.422;2022-12-18T09:27:36;2.90;89.80
67194;DHT22;54121;53.508;49.422;2022-12-18T09:30:03;2.80;90.00
67194;DHT22;54121;53.508;49.422;2022-12-18T09:32:30;2.70;90.50
67194;DHT22;54121;53.508;49.422;2022-12-18T09:34:56;2.90;90.40
67194;DHT22;54121;53.508;49.422;2022-12-18T09:37:23;2.80;90.30
67194;DHT22;54121;53.508;49.422;2022-12-18T09:39:49;2.70;90.40
67194;DHT22;54121;53.508;49.422;2022-12-18T09:42:21;2.70;90.60
67194;DHT22;54121;53.508;49.422;2022-12-18T09:44:53;2.70;90.80
67194;DHT22;54121;53.508;49.422;2022-12-18T09:47:33;2.80;90.90
67194;DHT22;54121;53.508;49.422;2022-12-18T09:50:05;2.90;90.20
67194;DHT22;54121;53.508;49.422;2022-12-18T09:52:45;2.90;90.40
67194;DHT22;54121;53.508;49.422;2022-12-18T09:57:57;2.90;90.60
67194;DHT22;54121;53.508;49.422;2022-12-18T10:00:25;3.00;90.50
67194;DHT22;54121;53.508;49.422;2022-12-18T10:02:58;3.10;90.60
67194;DHT22;54121;53.508;49.422;2022-12-18T10:08:13;3.00;90.40
67194;DHT22;54121;53.508;49.422;2022-12-18T10:10:51;3.00;90.70
67194;DHT22;54121;53.508;49.422;2022-12-18T10:19:00;3.20;90.40
67194;DHT22;54121;53.508;49.422;2022-12-18T10:21:34;3.10;91.20
67194;DHT22;54121;53.508;49.422;2022-12-18T10:24:32;3.10;91.30
67194;DHT22;54121;53.508;49.422;2022-12-18T10:27:15;3.10;91.30
67194;DHT22;54121;53.508;49.422;2022-12-18T10:29:45;3.10;91.00
67194;DHT22;54121;53.508;49.422;2022-12-18T10:32:32;3.20;91.00
67194;DHT22;54121;53.508;49.422;2022-12-18T10:34:59;3.20;90.90
67194;DHT22;54121;53.508;49.422;2022-12-18T10:37:28;3.30;91.20
67194;DHT22;54121;53.508;49.422;2022-12-18T10:40:08;3.40;90.60
67194;DHT22;54121;53.508;49.422;2022-12-18T10:42:35;3.50;89.80
67194;DHT22;54121;53.508;49.422;2022-12-18T10:45:13;3.50;89.60
67194;DHT22;54121;53.508;49.422;2022-12-18T10:47:49;3.40;90.00
67194;DHT22;54121;53.508;49.422;2022-12-18T10:53:00;3.30;90.50
67194;DHT22;54121;53.508;49.422;2022-12-18T10:55:35;3.40;90.70
67194;DHT22;54121;53.508;49.422;2022-12-18T10:58:23;3.40;90.10
67194;DHT22;54121;53.508;49.422;2022-12-18T11:01:16;3.50;89.90
67194;DHT22;54121;53.508;49.422;2022-12-18T11:03:46;3.50;89.40
67194;DHT22;54121;53.508;49.422;2022-12-18T11:06:25;3.40;89.70
67194;DHT22;54121;53.508;49.422;2022-12-18T11:09:04;3.50;90.40
67194;DHT22;54121;53.508;49.422;2022-12-18T11:11:32;3.50;89.60
67194;DHT22;54121;53.508;49.422;2022-12-18T11:16:55;3.40;90.30
67194;DHT22;54121;53.508;49.422;2022-12-18T11:19:33;3.50;90.10
67194;DHT22;54121;53.508;49.422;2022-12-18T11:22:01;3.40;89.50
67194;DHT22;54121;53.508;49.422;2022-12-18T11:24:32;3.40;90.20
67194;DHT22;54121;53.508;49.422;2022-12-18T11:27:02;3.40;90.00
67194;DHT22;54121;53.508;49.422;2022-12-18T11:29:35;3.50;90.00
67194;DHT22;54121;53.508;49.422;2022-12-18T11:32:23;3.50;90.00
67194;DHT22;54121;53.508;49.422;2022-12-18T11:34:56;3.40;90.10
67194;DHT22;54121;53.508;49.422;2022-12-18T11:37:24;3.50;90.10
67194;DHT22;54121;53.508;49.422;2022-12-18T11:39:54;3.70;89.70
67194;DHT22;54121;53.508;49.422;2022-12-18T11:45:00;3.60;89.80
67194;DHT22;54121;53.508;49.422;2022-12-18T11:47:51;3.60;90.00
67194;DHT22;54121;53.508;49.422;2022-12-18T11:50:25;3.60;90.20
67194;DHT22;54121;53.508;49.422;2022-12-18T11:52:52;3.70;89.70
67194;DHT22;54121;53.508;49.422;2022-12-18T11:55:32;3.60;89.70
67194;DHT22;54121;53.508;49.422;2022-12-18T11:58:18;3.70;89.90
67194;DHT22;54121;53.508;49.422;2022-12-18T12:01:39;3.80;89.60
67194;DHT22;54121;53.508;49.422;2022-12-18T12:06:32;3.80;89.60
67194;DHT22;54121;53.508;49.422;2022-12-18T12:09:21;3.80;89.20
67194;DHT22;54121;53.508;49.422;2022-12-18T12:20:30;3.70;89.90
67194;DHT22;54121;53.508;49.422;2022-12-18T12:26:23;3.70;90.30
67194;DHT22;54121;53.508;49.422;2022-12-18T12:29:07;3.80;90.10
67194;DHT22;54121;53.508;49.422;2022-12-18T12:32:21;3.90;90.30
67194;DHT22;54121;53.508;49.422;2022-12-18T12:38:08;4.00;88.40
67194;DHT22;54121;53.508;49.422;2022-12-18T12:40:41;4.10;87.60
67194;DHT22;54121;53.508;49.422;2022-12-18T12:43:41;4.00;87.40
67194;DHT22;54121;53.508;49.422;2022-12-18T12:46:14;3.90;88.10
67194;DHT22;54121;53.508;49.422;2022-12-18T12:48:53;3.90;88.40
67194;DHT22;54121;53.508;49.422;2022-12-18T12:53:50;3.90;88.20
67194;DHT22;54121;53.508;49.422;2022-12-18T12:56:19;3.90;88.30
67194;DHT22;54121;53.508;49.422;2022-12-18T12:58:59;3.90;88.00
67194;DHT22;54121;53.508;49.422;2022-12-18T13:01:43;3.90;89.40
67194;DHT22;54121;53.508;49.422;2022-12-18T13:04:30;3.90;89.20
67194;DHT22;54121;53.508;49.422;2022-12-18T13:07:11;3.90;90.30
67194;DHT22;54121;53.508;49.422;2022-12-18T13:10:13;3.90;89.90
67194;DHT22;54121;53.508;49.422;2022-12-18T13:13:12;3.60;90.90
67194;DHT22;54121;53.508;49.422;2022-12-18T13:15:43;3.70;91.60
67194;DHT22;54121;53.508;49.422;2022-12-18T13:20:39;3.60;91.20
67194;DHT22;54121;53.508;49.422;2022-12-18T13:25:53;3.60;91.60
67194;DHT22;54121;53.508;49.422;2022-12-18T13:31:01;3.50;91.60
67194;DHT22;54121;53.508;49.422;2022-12-18T13:38:39;3.40;92.10
67194;DHT22;54121;53.508;49.422;2022-12-18T13:41:25;3.40;92.10
67194;DHT22;54121;53.508;49.422;2022-12-18T13:43:56;3.40;92.30
67194;DHT22;54121;53.508;49.422;2022-12-18T13:51:48;3.30;92.70
67194;DHT22;54121;53.508;49.422;2022-12-18T13:54:24;3.20;93.00
67194;DHT22;54121;53.508;49.422;2022-12-18T13:56:51;3.20;93.40
67194;DHT22;54121;53.508;49.422;2022-12-18T13:59:24;3.20;93.40
67194;DHT22;54121;53.508;49.422;2022-12-18T14:01:59;3.10;93.80
67194;DHT22;54121;53.508;49.422;2022-12-18T14:04:32;3.10;94.30
67194;DHT22;54121;53.508;49.422;2022-12-18T14:07:01;3.10;94.70
67194;DHT22;54121;53.508;49.422;2022-12-18T14:09:31;3.00;94.90
67194;DHT22;54121;53.508;49.422;2022-12-18T14:12:01;3.00;95.10
67194;DHT22;54121;53.508;49.422;2022-12-18T14:14:48;3.00;95.10
67194;DHT22;54121;53.508;49.422;2022-12-18T14:17:16;3.10;95.00
67194;DHT22;54121;53.508;49.422;2022-12-18T14:19:44;3.00;94.90
67194;DHT22;54121;53.508;49.422;2022-12-18T14:22:17;3.00;94.80
67194;DHT22;54121;53.508;49.422;2022-12-18T14:24:45;3.00;95.00
67194;DHT22;54121;53.508;49.422;2022-12-18T14:27:25;3.00;95.10
67194;DHT22;54121;53.508;49.422;2022-12-18T14:29:52;3.00;95.20
67194;DHT22;54121;53.508;49.422;2022-12-18T14:32:20;3.00;95.40
67194;DHT22;54121;53.508;49.422;2022-12-18T14:34:49;3.00;95.30
67194;DHT22;54121;53.508;49.422;2022-12-18T14:37:20;3.00;95.30
67194;DHT22;54121;53.508;49.422;2022-12-18T14:40:02;3.00;95.50
67194;DHT22;54121;53.508;49.422;2022-12-18T14:42:30;3.00;95.50
67194;DHT22;54121;53.508;49.422;2022-12-18T14:45:35;3.00;95.70
67194;DHT22;54121;53.508;49.422;2022-12-18T14:48:16;3.00;95.90
67194;DHT22;54121;53.508;49.422;2022-12-18T14:50:44;3.00;96.20
67194;DHT22;54121;53.508;49.422;2022-12-18T14:53:23;3.00;96.20
67194;DHT22;54121;53.508;49.422;2022-12-18T14:55:50;3.00;96.20
67194;DHT22;54121;53.508;49.422;2022-12-18T14:58:17;3.00;96.30
67194;DHT22;54121;53.508;49.422;2022-12-18T15:00:44;3.10;96.40
67194;DHT22;54121;53.508;49.422;2022-12-18T15:03:18;3.00;96.20
67194;DHT22;54121;53.508;49.422;2022-12-18T15:05:46;3.00;96.30
67194;DHT22;54121;53.508;49.422;2022-12-18T15:08:39;3.00;96.30
67194;DHT22;54121;53.508;49.422;2022-12-18T15:11:27;3.00;96.20
67194;DHT22;54121;53.508;49.422;2022-12-18T15:13:54;3.00;96.20
67194;DHT22;54121;53.508;49.422;2022-12-18T15:16:20;3.00;96.20
67194;DHT22;54121;53.508;49.422;2022-12-18T15:18:47;3.00;96.00
67194;DHT22;54121;53.508;49.422;2022-12-18T15:21:20;3.00;96.10
67194;DHT22;54121;53.508;49.422;2022-12-18T15:23:52;3.00;96.20
67194;DHT22;54121;53.508;49.422;2022-12-18T15:26:20;3.00;96.20
67194;DHT22;54121;53.508;49.422;2022-12-18T15:28:57;3.00;96.30
67194;DHT22;54121;53.508;49.422;2022-12-18T15:31:35;3.00;96.20
67194;DHT22;54121;53.508;49.422;2022-12-18T15:34:14;3.00;96.30
67194;DHT22;54121;53.508;49.422;2022-12-18T15:36:44;3.00;96.50
67194;DHT22;54121;53.508;49.422;2022-12-18T15:39:12;3.00;96.40
67194;DHT22;54121;53.508;49.422;2022-12-18T15:41:39;3.10;96.20
67194;DHT22;54121;53.508;49.422;2022-12-18T15:44:32;3.10;95.90
67194;DHT22;54121;53.508;49.422;2022-12-18T15:46:58;3.10;95.80
67194;DHT22;54121;53.508;49.422;2022-12-18T15:49:25;3.10;95.60
67194;DHT22;54121;53.508;49.422;2022-12-18T15:51:56;3.10;95.60
67194;DHT22;54121;53.508;49.422;2022-12-18T15:54:24;3.10;95.10
67194;DHT22;54121;53.508;49.422;2022-12-18T15:57:12;3.10;95.60
67194;DHT22;54121;53.508;49.422;2022-12-18T15:59:53;3.00;95.80
67194;DHT22;54121;53.508;49.422;2022-12-18T16:02:20;3.10;96.00
67194;DHT22;54121;53.508;49.422;2022-12-18T16:04:50;3.10;96.00
67194;DHT22;54121;53.508;49.422;2022-12-18T16:07:17;3.20;96.00
67194;DHT22;54121;53.508;49.422;2022-12-18T16:09:44;3.20;96.00
67194;DHT22;54121;53.508;49.422;2022-12-18T16:12:19;3.20;96.00
67194;DHT22;54121;53.508;49.422;2022-12-18T16:14:47;3.20;96.00
67194;DHT22;54121;53.508;49.422;2022-12-18T16:17:14;3.20;96.10
67194;DHT22;54121;53.508;49.422;2022-12-18T16:19:41;3.20;96.10
67194;DHT22;54121;53.508;49.422;2022-12-18T16:22:19;3.30;96.20
67194;DHT22;54121;53.508;49.422;2022-12-18T16:24:47;3.20;96.40
67194;DHT22;54121;53.508;49.422;2022-12-18T16:27:14;3.20;96.40
67194;DHT22;54121;53.508;49.422;2022-12-18T16:29:40;3.20;96.50
67194;DHT22;54121;53.508;49.422;2022-12-18T16:32:08;3.20;96.70
67194;DHT22;54121;53.508;49.422;2022-12-18T16:34:37;3.20;96.80
67194;DHT22;54121;53.508;49.422;2022-12-18T16:37:06;3.20;97.00
67194;DHT22;54121;53.508;49.422;2022-12-18T16:39:34;3.20;97.20
67194;DHT22;54121;53.508;49.422;2022-12-18T16:42:28;3.20;97.40
67194;DHT22;54121;53.508;49.422;2022-12-18T16:44:55;3.20;97.50
67194;DHT22;54121;53.508;49.422;2022-12-18T16:47:21;3.10;97.70
67194;DHT22;54121;53.508;49.422;2022-12-18T16:49:48;3.10;97.90
67194;DHT22;54121;53.508;49.422;2022-12-18T16:52:18;3.10;98.20
67194;DHT22;54121;53.508;49.422;2022-12-18T16:54:47;3.10;98.10
67194;DHT22;54121;53.508;49.422;2022-12-18T16:57:16;3.20;98.20
67194;DHT22;54121;53.508;49.422;2022-12-18T16:59:42;3.10;98.20
67194;DHT22;54121;53.508;49.422;2022-12-18T17:02:20;3.10;98.50
67194;DHT22;54121;53.508;49.422;2022-12-18T17:04:47;3.10;98.50
67194;DHT22;54121;53.508;49.422;2022-12-18T17:07:14;3.10;98.80
67194;DHT22;54121;53.508;49.422;2022-12-18T17:09:41;3.20;98.90
67194;DHT22;54121;53.508;49.422;2022-12-18T17:12:08;3.20;98.50
67194;DHT22;54121;53.508;49.422;2022-12-18T17:14:35;3.20;98.30
67194;DHT22;54121;53.508;49.422;2022-12-18T17:17:02;3.20;98.60
67194;DHT22;54121;53.508;49.422;2022-12-18T17:19:29;3.20;98.70
67194;DHT22;54121;53.508;49.422;2022-12-18T17:21:56;3.20;98.70
67194;DHT22;54121;53.508;49.422;2022-12-18T17:24:22;3.20;98.70
67194;DHT22;54121;53.508;49.422;2022-12-18T17:26:49;3.20;99.30